Time;durP1;ratioP1;P1;durP2;ratioP2;P2;SDS_P1;SDS_P2;PMS_P1;PMS_P2;Temp;Humidity;BMP_temperature;BMP_pressure;BME280_temperature;BME280_humidity;BME280_pressure;Samples;Min_cycle;Max_cycle;Signal;HPM_P1;HPM_P2
2023/10/06 00:00:40;;;;;;;5.65;2.88;;;13.10;99.90;;;;;;5030349;28;20057;-80
2023/10/06 00:03:14;;;;;;;5.55;2.72;;;13.10;99.90;;;;;;5025981;28;20045;-80
2023/10/06 00:05:42;;;;;;;7.28;3.28;;;13.00;99.90;;;;;;5043125;28;20033;-80
2023/10/06 00:08:11;;;;;;;7.18;2.42;;;13.00;99.90;;;;;;5043834;28;20673;-80
2023/10/06 00:10:44;;;;;;;5.40;2.72;;;13.00;99.90;;;;;;5044262;28;20045;-80
2023/10/06 00:13:19;;;;;;;6.75;3.58;;;13.00;99.90;;;;;;5020850;28;20052;-80
2023/10/06 00:15:49;;;;;;;6.93;3.67;;;13.00;99.90;;;;;;5015214;28;20037;-80
2023/10/06 00:18:23;;;;;;;7.32;2.90;;;13.00;99.90;;;;;;5043287;28;20049;-80
2023/10/06 00:20:55;;;;;;;5.93;2.67;;;12.90;99.90;;;;;;5024958;28;20454;-80
2023/10/06 00:23:30;;;;;;;5.93;2.78;;;12.80;99.90;;;;;;5045062;28;20115;-80
2023/10/06 00:25:59;;;;;;;8.30;3.22;;;12.80;99.90;;;;;;5020820;28;20045;-80
2023/10/06 00:28:27;;;;;;;7.18;3.22;;;12.80;99.90;;;;;;5027740;28;20918;-80
2023/10/06 00:30:57;;;;;;;6.82;2.70;;;12.80;99.90;;;;;;5056944;28;20049;-80
2023/10/06 00:33:32;;;;;;;7.78;2.60;;;12.80;99.90;;;;;;5026922;28;20508;-80
2023/10/06 00:36:14;;;;;;;6.80;2.72;;;12.80;99.90;;;;;;5032920;28;20486;-80
2023/10/06 00:38:45;;;;;;;8.18;3.05;;;12.80;99.90;;;;;;5066065;28;20049;-80
2023/10/06 00:41:15;;;;;;;7.25;3.20;;;12.60;99.90;;;;;;5048033;28;20049;-80
2023/10/06 00:43:43;;;;;;;6.32;3.03;;;12.60;99.90;;;;;;5045030;28;20099;-80
2023/10/06 00:46:13;;;;;;;5.10;2.38;;;12.60;99.90;;;;;;5033636;28;20148;-80
2023/10/06 00:48:42;;;;;;;5.57;2.58;;;12.60;99.90;;;;;;5032892;28;20093;-80
2023/10/06 00:51:19;;;;;;;7.55;2.60;;;12.60;99.90;;;;;;5029605;28;20049;-80
2023/10/06 00:53:46;;;;;;;5.20;2.42;;;12.60;99.90;;;;;;5032000;28;20049;-80
2023/10/06 00:56:17;;;;;;;7.35;2.78;;;12.50;99.90;;;;;;5021706;28;20094;-80
2023/10/06 00:58:44;;;;;;;5.95;2.03;;;12.50;99.90;;;;;;5047944;28;20052;-80
2023/10/06 01:01:13;;;;;;;9.48;3.53;;;12.40;99.90;;;;;;5023069;28;20053;-80
2023/10/06 01:03:42;;;;;;;5.70;2.72;;;12.50;99.90;;;;;;5046078;28;20921;-80
2023/10/06 01:06:14;;;;;;;6.80;2.70;;;12.50;99.90;;;;;;5032345;28;20064;-80
2023/10/06 01:08:53;;;;;;;7.40;2.70;;;11.60;99.90;;;;;;5026928;28;20126;-80
2023/10/06 01:11:26;;;;;;;7.22;3.13;;;12.40;99.90;;;;;;5041235;28;20049;-80
2023/10/06 01:13:56;;;;;;;8.77;3.42;;;12.30;99.90;;;;;;5026905;28;20052;-80
2023/10/06 01:16:35;;;;;;;7.95;2.97;;;12.40;99.90;;;;;;5020427;28;20064;-80
2023/10/06 01:21:53;;;;;;;6.22;2.45;;;12.30;99.90;;;;;;5035671;28;20063;-80
2023/10/06 01:24:25;;;;;;;7.75;2.95;;;12.30;99.90;;;;;;5043409;28;20044;-80
2023/10/06 01:26:53;;;;;;;4.93;2.38;;;12.30;99.90;;;;;;5060662;28;20053;-80
2023/10/06 01:29:28;;;;;;;4.57;2.40;;;12.20;99.90;;;;;;5029056;28;20072;-80
2023/10/06 01:31:56;;;;;;;7.60;2.50;;;12.20;99.90;;;;;;5027634;28;20496;-80
2023/10/06 01:34:27;;;;;;;5.85;2.22;;;12.20;99.90;;;;;;5044352;28;20037;-80
2023/10/06 01:36:54;;;;;;;6.03;2.47;;;12.10;99.90;;;;;;5039860;28;22422;-80
2023/10/06 01:39:29;;;;;;;9.93;2.85;;;12.20;99.90;;;;;;5029061;28;20072;-80
2023/10/06 01:41:56;;;;;;;6.70;2.95;;;12.10;99.90;;;;;;5021142;28;20110;-80
2023/10/06 01:44:23;;;;;;;3.08;1.95;;;12.10;99.90;;;;;;5018951;28;20056;-80
2023/10/06 01:46:53;;;;;;;8.73;2.75;;;12.00;99.90;;;;;;5043288;28;20143;-80
2023/10/06 01:49:25;;;;;;;6.55;2.13;;;12.00;99.90;;;;;;5044271;28;20134;-80
2023/10/06 01:51:52;;;;;;;5.57;2.30;;;12.00;99.90;;;;;;5037508;28;20069;-80
2023/10/06 01:54:27;;;;;;;4.85;2.72;;;12.10;99.90;;;;;;5044259;28;20185;-80
2023/10/06 01:56:55;;;;;;;7.50;2.38;;;12.00;99.90;;;;;;5060899;28;20053;-80
2023/10/06 01:59:22;;;;;;;4.80;2.35;;;12.00;99.90;;;;;;5026309;28;20044;-80
2023/10/06 02:01:49;;;;;;;5.65;2.53;;;12.00;99.90;;;;;;5045503;28;20059;-80
2023/10/06 02:04:26;;;;;;;6.05;2.65;;;11.90;99.90;;;;;;5062597;28;20045;-80
2023/10/06 02:07:22;;;;;;;4.95;2.55;;;12.00;99.90;;;;;;5024351;28;20061;-80
2023/10/06 02:09:51;;;;;;;6.53;2.95;;;11.90;99.90;;;;;;5044889;28;20068;-80
2023/10/06 02:12:23;;;;;;;5.55;2.63;;;11.90;99.90;;;;;;5044379;28;20037;-80
2023/10/06 02:14:54;;;;;;;7.00;3.08;;;11.90;99.90;;;;;;5043781;28;20052;-80
2023/10/06 02:17:21;;;;;;;7.90;2.53;;;11.80;99.90;;;;;;5039051;28;20037;-80
2023/10/06 02:19:48;;;;;;;5.47;2.45;;;11.80;99.90;;;;;;5040614;28;20103;-80
2023/10/06 02:22:17;;;;;;;8.40;2.72;;;11.70;99.90;;;;;;5026988;28;20148;-80
2023/10/06 02:24:45;;;;;;;6.50;2.33;;;11.70;99.90;;;;;;5043057;28;20071;-80
2023/10/06 02:27:12;;;;;;;4.70;2.15;;;11.70;99.90;;;;;;5043015;28;20132;-80
2023/10/06 02:29:43;;;;;;;11.27;3.42;;;11.70;99.90;;;;;;5017921;28;20067;-80
2023/10/06 02:32:12;;;;;;;9.00;2.50;;;11.70;99.90;;;;;;5041005;28;20494;-80
2023/10/06 02:34:40;;;;;;;7.47;2.67;;;11.70;99.90;;;;;;5042869;28;20045;-80
2023/10/06 02:37:08;;;;;;;6.35;2.13;;;11.70;99.90;;;;;;5042750;28;20041;-80
2023/10/06 02:39:38;;;;;;;6.50;2.35;;;11.70;99.90;;;;;;5033389;28;22676;-80
2023/10/06 02:42:09;;;;;;;6.88;2.63;;;11.60;99.90;;;;;;5042289;28;20041;-80
2023/10/06 02:44:41;;;;;;;7.47;2.72;;;11.60;99.90;;;;;;5042271;28;20048;-80
2023/10/06 02:47:09;;;;;;;7.22;2.72;;;11.60;99.90;;;;;;5040638;28;20165;-80
2023/10/06 02:49:40;;;;;;;4.90;2.13;;;11.60;99.90;;;;;;5033999;28;20142;-80
2023/10/06 02:52:29;;;;;;;6.40;2.40;;;11.50;99.90;;;;;;5041376;28;22480;-80
2023/10/06 02:55:05;;;;;;;9.15;2.38;;;11.50;99.90;;;;;;5027357;28;20056;-80
2023/10/06 02:57:35;;;;;;;6.68;2.33;;;11.50;99.90;;;;;;5040913;28;20053;-80
2023/10/06 03:03:03;;;;;;;5.20;2.30;;;11.50;99.90;;;;;;5044421;28;20147;-80
2023/10/06 03:05:38;;;;;;;5.97;2.58;;;11.40;99.90;;;;;;5021854;28;22452;-80
2023/10/06 03:08:08;;;;;;;7.93;2.60;;;11.40;99.90;;;;;;5039391;28;20542;-80
2023/10/06 03:10:43;;;;;;;8.05;2.35;;;11.30;99.90;;;;;;5036445;28;20056;-80
2023/10/06 03:13:15;;;;;;;5.97;2.67;;;11.30;99.90;;;;;;5023915;28;20048;-80
2023/10/06 03:15:46;;;;;;;5.05;2.13;;;11.30;99.90;;;;;;5017951;28;20061;-80
2023/10/06 03:18:17;;;;;;;6.35;2.05;;;11.30;99.90;;;;;;5024576;28;20488;-80
2023/10/06 03:20:48;;;;;;;7.07;2.30;;;11.30;99.90;;;;;;5030326;28;20106;-80
2023/10/06 03:23:32;;;;;;;6.28;2.47;;;11.30;99.90;;;;;;5026522;28;20064;-80
2023/10/06 03:26:03;;;;;;;8.77;2.63;;;11.30;99.90;;;;;;5043049;28;20099;-80
2023/10/06 03:28:36;;;;;;;6.75;1.98;;;11.20;99.90;;;;;;5043105;28;20053;-80
2023/10/06 03:31:35;;;;;;;5.95;2.50;;;11.20;99.90;;;;;;5030563;28;20140;-80
2023/10/06 03:33:55;;;;;;;6.95;2.90;;;11.30;99.90;;;;;;5059476;28;22552;-80
2023/10/06 03:36:38;;;;;;;7.72;2.42;;;11.30;99.90;;;;;;5042820;28;20045;-80
2023/10/06 03:39:10;;;;;;;6.00;2.13;;;11.30;99.90;;;;;;5034946;28;20049;-80
2023/10/06 03:41:44;;;;;;;4.63;1.90;;;11.30;99.90;;;;;;5023047;28;20057;-80
2023/10/06 03:44:12;;;;;;;6.93;2.10;;;11.30;99.90;;;;;;5021447;28;20049;-80
2023/10/06 03:46:40;;;;;;;4.80;2.67;;;11.30;99.90;;;;;;5043311;28;20293;-80
2023/10/06 03:49:07;;;;;;;6.45;2.13;;;11.30;99.90;;;;;;5019945;28;20049;-80
2023/10/06 03:51:38;;;;;;;6.28;2.08;;;11.30;99.90;;;;;;5037699;28;20144;-80
2023/10/06 03:54:05;;;;;;;8.95;2.80;;;11.30;99.90;;;;;;5044927;28;20060;-80
2023/10/06 03:56:33;;;;;;;7.53;2.70;;;11.30;99.90;;;;;;5031430;28;20048;-80
2023/10/06 03:59:00;;;;;;;8.63;2.40;;;11.30;99.90;;;;;;5039676;28;20040;-80
2023/10/06 04:01:31;;;;;;;5.88;2.13;;;11.30;99.90;;;;;;5026401;28;20073;-80
2023/10/06 04:03:59;;;;;;;8.65;3.20;;;11.30;99.90;;;;;;5037567;28;20048;-80
2023/10/06 04:06:27;;;;;;;7.40;2.10;;;11.30;99.90;;;;;;5030431;28;20130;-80
2023/10/06 04:08:56;;;;;;;7.97;2.13;;;11.20;99.90;;;;;;5033677;28;20153;-80
2023/10/06 04:11:29;;;;;;;5.45;1.73;;;11.20;99.90;;;;;;5047263;28;20804;-80
2023/10/06 04:13:57;;;;;;;6.20;2.03;;;11.20;99.90;;;;;;5023838;28;22442;-80
2023/10/06 04:16:25;;;;;;;11.30;2.13;;;11.20;99.90;;;;;;5052386;28;20123;-80
2023/10/06 04:18:52;;;;;;;4.80;1.88;;;11.20;99.90;;;;;;5046814;28;20049;-80
2023/10/06 04:21:20;;;;;;;5.35;2.28;;;11.20;99.90;;;;;;5030887;28;20049;-80
2023/10/06 04:23:47;;;;;;;9.93;2.78;;;11.20;99.90;;;;;;5030422;28;20060;-80
2023/10/06 04:26:15;;;;;;;4.55;1.80;;;11.20;99.90;;;;;;5030186;28;20098;-80
2023/10/06 04:28:47;;;;;;;7.78;2.60;;;11.20;99.90;;;;;;5045832;28;20060;-80
2023/10/06 04:31:15;;;;;;;4.97;1.65;;;11.20;99.90;;;;;;5038512;28;20048;-80
2023/10/06 04:33:43;;;;;;;8.13;2.15;;;11.30;99.90;;;;;;5041369;28;20041;-80
2023/10/06 04:36:18;;;;;;;10.63;2.53;;;11.20;99.90;;;;;;5045486;28;21000;-80
2023/10/06 04:38:45;;;;;;;10.75;2.72;;;11.20;99.90;;;;;;5048749;28;20095;-80
2023/10/06 04:41:14;;;;;;;10.70;2.90;;;11.20;99.90;;;;;;5046209;28;20056;-80
2023/10/06 04:43:44;;;;;;;5.15;2.15;;;11.20;99.90;;;;;;5045830;28;20055;-80
2023/10/06 04:46:13;;;;;;;9.45;2.72;;;11.20;99.90;;;;;;5032727;28;20462;-80
2023/10/06 04:48:40;;;;;;;11.23;2.50;;;11.20;99.90;;;;;;5031308;28;20136;-80
2023/10/06 04:51:12;;;;;;;7.88;2.53;;;11.20;99.90;;;;;;5047594;28;20399;-80
2023/10/06 04:53:39;;;;;;;11.07;2.65;;;11.20;99.90;;;;;;5019948;28;20134;-80
2023/10/06 04:56:09;;;;;;;8.25;2.88;;;11.20;99.90;;;;;;5057153;28;20045;-80
2023/10/06 04:58:39;;;;;;;7.68;2.28;;;11.20;99.90;;;;;;5019497;28;20041;-80
2023/10/06 05:01:07;;;;;;;6.93;2.08;;;11.10;99.90;;;;;;5028469;28;20059;-80
2023/10/06 05:03:45;;;;;;;11.05;3.22;;;11.20;99.90;;;;;;5042898;28;20049;-80
2023/10/06 05:06:17;;;;;;;9.35;2.95;;;11.20;99.90;;;;;;5045872;28;20068;-80
2023/10/06 05:08:48;;;;;;;8.70;2.72;;;11.20;99.90;;;;;;5044646;28;20142;-80
2023/10/06 05:11:18;;;;;;;7.28;3.10;;;11.20;99.90;;;;;;5039484;28;20055;-80
2023/10/06 05:13:52;;;;;;;7.45;2.80;;;11.10;99.90;;;;;;5027750;28;22551;-80
2023/10/06 05:16:22;;;;;;;14.40;2.72;;;11.20;99.90;;;;;;5033335;28;20125;-80
2023/10/06 05:18:51;;;;;;;7.15;2.95;;;11.20;99.90;;;;;;5057135;28;20109;-80
2023/10/06 05:21:20;;;;;;;10.43;3.65;;;11.20;99.90;;;;;;5020993;28;20059;-80
2023/10/06 05:23:47;;;;;;;11.07;4.25;;;11.20;99.90;;;;;;5017803;28;20045;-80
2023/10/06 05:26:15;;;;;;;12.60;3.60;;;11.20;99.90;;;;;;5024527;28;20404;-80
2023/10/06 05:28:44;;;;;;;14.73;4.22;;;11.30;99.90;;;;;;5039993;28;20049;-80
2023/10/06 05:31:13;;;;;;;11.98;3.70;;;11.30;99.90;;;;;;5028791;28;20136;-80
2023/10/06 05:33:44;;;;;;;17.17;4.38;;;11.30;99.90;;;;;;5038439;28;20045;-80
2023/10/06 05:36:12;;;;;;;12.25;3.85;;;11.40;99.90;;;;;;5043489;28;20091;-80
2023/10/06 05:38:42;;;;;;;12.05;4.28;;;11.40;99.90;;;;;;5012051;28;20049;-80
2023/10/06 05:41:11;;;;;;;174.50;50.10;;;11.40;99.90;;;;;;5022060;28;20435;-80
2023/10/06 05:43:41;;;;;;;149.23;48.75;;;11.40;99.90;;;;;;5036098;28;20057;-80
2023/10/06 05:46:09;;;;;;;166.43;51.72;;;11.50;99.90;;;;;;5041232;28;20041;-80
2023/10/06 05:48:38;;;;;;;136.10;44.15;;;11.50;99.90;;;;;;5045003;28;20086;-80
2023/10/06 05:51:08;;;;;;;138.27;42.00;;;11.50;99.90;;;;;;5043738;28;20048;-80
2023/10/06 05:53:40;;;;;;;113.82;35.60;;;11.60;99.90;;;;;;5049513;28;20112;-80
2023/10/06 05:56:07;;;;;;;98.10;32.15;;;11.60;99.90;;;;;;5028655;28;20056;-80
2023/10/06 05:58:37;;;;;;;86.38;26.88;;;11.70;99.90;;;;;;5037920;28;20064;-80
2023/10/06 06:01:10;;;;;;;70.18;21.83;;;11.70;99.90;;;;;;5029752;28;20064;-80
2023/10/06 06:03:44;;;;;;;41.50;13.40;;;11.70;99.90;;;;;;5047681;28;20056;-80
2023/10/06 06:06:22;;;;;;;46.97;16.25;;;11.80;99.90;;;;;;5030405;28;20214;-80
2023/10/06 06:08:51;;;;;;;50.75;15.27;;;11.80;99.90;;;;;;5046670;28;20145;-80
2023/10/06 06:11:19;;;;;;;48.58;16.48;;;11.90;99.90;;;;;;5050760;28;20140;-80
2023/10/06 06:13:47;;;;;;;55.05;19.10;;;11.90;99.90;;;;;;5052940;28;20048;-80
2023/10/06 06:16:30;;;;;;;48.33;16.73;;;12.00;99.90;;;;;;5049558;28;20045;-80
2023/10/06 06:18:58;;;;;;;42.38;13.88;;;12.00;99.90;;;;;;5046845;28;20052;-80
2023/10/06 06:21:25;;;;;;;49.10;15.43;;;12.00;99.90;;;;;;5029355;28;20388;-80
2023/10/06 06:23:55;;;;;;;40.85;13.90;;;12.10;99.90;;;;;;5032185;28;20141;-80
2023/10/06 06:26:23;;;;;;;48.47;14.27;;;12.10;99.90;;;;;;5045927;28;20048;-80
2023/10/06 06:28:52;;;;;;;35.63;11.60;;;12.20;99.90;;;;;;5022255;28;20492;-80
2023/10/06 06:31:21;;;;;;;33.85;10.38;;;12.20;99.90;;;;;;5033460;28;20049;-80
2023/10/06 06:33:55;;;;;;;22.88;8.93;;;12.20;99.90;;;;;;5046004;28;20059;-80
2023/10/06 06:36:31;;;;;;;21.95;7.80;;;12.30;99.90;;;;;;5043346;28;20049;-80
2023/10/06 06:38:59;;;;;;;18.85;7.22;;;12.30;99.90;;;;;;5026427;28;20051;-80
2023/10/06 06:41:27;;;;;;;21.83;6.95;;;12.40;99.90;;;;;;5045887;28;20053;-80
2023/10/06 06:44:01;;;;;;;17.58;5.32;;;12.40;99.90;;;;;;5041719;28;20076;-80
2023/10/06 06:46:29;;;;;;;15.20;4.95;;;12.50;99.90;;;;;;5041199;28;20053;-80
2023/10/06 06:48:59;;;;;;;16.25;5.45;;;12.60;99.90;;;;;;5029805;28;20431;-80
2023/10/06 06:51:30;;;;;;;14.20;5.50;;;12.70;99.90;;;;;;5036232;28;20045;-80
2023/10/06 06:53:58;;;;;;;19.80;4.53;;;12.70;99.90;;;;;;5026841;28;20088;-80
2023/10/06 06:56:28;;;;;;;11.45;4.10;;;12.70;99.90;;;;;;5027846;28;20155;-80
2023/10/06 06:58:56;;;;;;;10.23;3.85;;;12.70;99.90;;;;;;5027186;28;20052;-80
2023/10/06 07:01:23;;;;;;;9.77;4.00;;;12.80;99.90;;;;;;5042784;28;20057;-80
2023/10/06 07:03:51;;;;;;;10.23;3.92;;;12.80;99.90;;;;;;5022477;28;20067;-80
2023/10/06 07:06:18;;;;;;;15.43;5.15;;;12.80;99.90;;;;;;5036578;28;20048;-80
2023/10/06 07:08:47;;;;;;;11.52;4.00;;;12.90;99.90;;;;;;5021241;28;20111;-80
2023/10/06 07:11:15;;;;;;;9.50;3.83;;;12.90;99.90;;;;;;5032917;28;20053;-80
2023/10/06 07:13:45;;;;;;;13.23;4.30;;;13.00;99.90;;;;;;5040811;28;20045;-80
2023/10/06 07:16:14;;;;;;;15.40;4.30;;;13.00;99.90;;;;;;5041516;28;20091;-80
2023/10/06 07:18:41;;;;;;;13.95;3.95;;;13.00;99.90;;;;;;5020804;28;20037;-80
2023/10/06 07:21:10;;;;;;;11.98;4.78;;;12.90;99.90;;;;;;5020623;28;22513;-80
2023/10/06 07:23:40;;;;;;;10.70;4.13;;;13.10;99.90;;;;;;5029362;28;20053;-80
2023/10/06 07:26:13;;;;;;;14.75;5.55;;;13.20;99.90;;;;;;5042507;28;20047;-80
2023/10/06 07:28:41;;;;;;;12.35;4.35;;;13.30;99.90;;;;;;5021917;28;20049;-80
2023/10/06 07:31:12;;;;;;;23.55;5.72;;;13.40;99.90;;;;;;5027848;28;20052;-80
2023/10/06 07:33:43;;;;;;;14.00;4.60;;;13.40;99.90;;;;;;5025705;28;20096;-80
2023/10/06 07:36:17;;;;;;;10.25;4.18;;;13.70;99.90;;;;;;5026069;28;20084;-80
2023/10/06 07:38:45;;;;;;;11.52;3.85;;;13.90;99.90;;;;;;5023756;28;20081;-80
2023/10/06 07:41:23;;;;;;;9.48;3.72;;;14.10;99.90;;;;;;5017097;28;20063;-79
2023/10/06 07:43:52;;;;;;;7.65;3.08;;;14.20;99.90;;;;;;5046562;28;20063;-80
2023/10/06 07:46:19;;;;;;;8.85;3.30;;;14.40;99.90;;;;;;5018936;28;20056;-81
2023/10/06 07:48:46;;;;;;;8.65;2.38;;;14.50;99.90;;;;;;5036753;28;20059;-81
2023/10/06 07:51:16;;;;;;;7.25;2.50;;;14.70;99.90;;;;;;5044629;28;20049;-80
2023/10/06 07:53:43;;;;;;;11.10;2.28;;;14.80;99.50;;;;;;5045818;28;20049;-81
2023/10/06 07:56:11;;;;;;;7.80;2.42;;;14.90;97.70;;;;;;5045774;28;20070;-79
2023/10/06 07:58:43;;;;;;;6.93;1.95;;;15.00;97.30;;;;;;5062243;28;20056;-80
2023/10/06 08:01:12;;;;;;;7.72;2.00;;;15.20;96.80;;;;;;5045820;28;20094;-80
2023/10/06 08:03:45;;;;;;;6.82;2.60;;;15.30;96.00;;;;;;5040823;28;20527;-79
2023/10/06 08:06:13;;;;;;;5.77;1.87;;;15.40;95.50;;;;;;5056220;28;20614;-80
2023/10/06 08:08:41;;;;;;;6.30;2.03;;;15.50;94.90;;;;;;5046903;28;20083;-79
2023/10/06 08:11:09;;;;;;;6.38;1.75;;;15.50;94.20;;;;;;5032473;28;20044;-80
2023/10/06 08:13:38;;;;;;;8.23;1.80;;;15.60;94.00;;;;;;5030562;28;20130;-79
2023/10/06 08:16:08;;;;;;;7.00;2.25;;;15.70;93.60;;;;;;5047052;28;20527;-80
2023/10/06 08:18:35;;;;;;;10.80;2.28;;;15.80;93.20;;;;;;5024324;28;20064;-79
2023/10/06 08:21:03;;;;;;;7.32;2.20;;;15.80;92.30;;;;;;5047128;28;20377;-81
2023/10/06 08:23:35;;;;;;;13.35;2.80;;;15.90;92.20;;;;;;5046453;28;20530;-80
2023/10/06 08:26:08;;;;;;;4.85;1.65;;;16.10;91.90;;;;;;5035709;28;21103;-79
2023/10/06 08:28:35;;;;;;;7.03;2.22;;;16.20;91.20;;;;;;5028832;28;20052;-79
2023/10/06 08:31:03;;;;;;;6.78;2.00;;;16.20;90.90;;;;;;5032558;28;20051;-79
2023/10/06 08:33:31;;;;;;;6.38;1.42;;;16.30;91.00;;;;;;5027710;28;20059;-81
2023/10/06 08:36:01;;;;;;;6.72;1.50;;;16.40;90.70;;;;;;5021845;28;22380;-80
2023/10/06 08:38:30;;;;;;;5.63;1.50;;;16.40;90.10;;;;;;5041427;28;20053;-79
2023/10/06 08:41:02;;;;;;;8.63;1.73;;;16.40;89.40;;;;;;5042673;28;20079;-81
2023/10/06 08:43:32;;;;;;;13.43;1.42;;;16.50;89.20;;;;;;5061036;28;20050;-79
2023/10/06 08:46:01;;;;;;;6.32;1.60;;;16.50;88.60;;;;;;5018616;28;20067;-80
2023/10/06 08:48:35;;;;;;;6.00;1.50;;;16.60;88.50;;;;;;5041978;28;20055;-80
2023/10/06 08:51:07;;;;;;;7.25;1.60;;;16.80;88.40;;;;;;5044820;28;20037;-80
2023/10/06 08:53:39;;;;;;;7.68;1.48;;;16.80;87.80;;;;;;5004978;28;20048;-81
2023/10/06 08:56:06;;;;;;;5.95;1.88;;;16.90;86.90;;;;;;5039938;28;20526;-80
2023/10/06 08:58:35;;;;;;;5.45;1.40;;;16.90;87.20;;;;;;5043149;28;20045;-80
2023/10/06 09:01:05;;;;;;;5.68;1.90;;;17.00;87.00;;;;;;5025204;28;20060;-80
2023/10/06 09:03:33;;;;;;;6.05;1.27;;;17.10;86.60;;;;;;5029658;28;20056;-80
2023/10/06 09:06:02;;;;;;;6.68;1.52;;;17.10;85.00;;;;;;5024216;28;20130;-80
2023/10/06 09:08:40;;;;;;;9.18;1.50;;;17.10;84.70;;;;;;5062698;28;20049;-80
2023/10/06 09:11:07;;;;;;;7.47;1.60;;;17.10;84.70;;;;;;5029979;28;22434;-80
2023/10/06 09:13:34;;;;;;;6.30;1.88;;;17.20;84.90;;;;;;5050737;28;20060;-80
2023/10/06 09:16:04;;;;;;;7.30;1.95;;;17.30;85.80;;;;;;5034653;28;20038;-80
2023/10/06 09:18:39;;;;;;;6.47;1.80;;;17.40;85.60;;;;;;5027700;28;22509;-82
2023/10/06 09:21:13;;;;;;;7.57;1.88;;;17.40;85.00;;;;;;5027023;28;20049;-80
2023/10/06 09:23:40;;;;;;;;;;;17.50;84.60;;;;;;5024797;28;20061;-79
2023/10/06 09:26:15;;;;;;;4.03;1.13;;;17.50;84.10;;;;;;5044254;28;19932;-80
2023/10/06 09:29:02;;;;;;;6.18;1.25;;;17.60;84.00;;;;;;5039283;28;20195;-79
2023/10/06 09:31:37;;;;;;;4.45;1.38;;;17.70;84.60;;;;;;5042729;28;20053;-79
2023/10/06 09:34:07;;;;;;;7.00;1.30;;;17.90;83.10;;;;;;5040868;28;20060;-79
2023/10/06 09:36:36;;;;;;;3.10;1.08;;;17.80;81.50;;;;;;5033760;28;20053;-78
2023/10/06 09:39:14;;;;;;;11.32;1.85;;;17.90;81.00;;;;;;5026316;28;20055;-77
2023/10/06 09:42:05;;;;;;;4.50;1.45;;;17.90;81.00;;;;;;5055779;28;20041;-77
2023/10/06 09:44:35;;;;;;;6.53;1.30;;;17.90;80.50;;;;;;5015561;28;20053;-78
2023/10/06 09:47:04;;;;;;;5.85;1.42;;;17.90;79.80;;;;;;5043320;28;20412;-80
2023/10/06 09:49:35;;;;;;;5.85;1.42;;;18.00;80.80;;;;;;5037722;28;20458;-82
2023/10/06 09:52:03;;;;;;;8.82;1.80;;;18.00;79.70;;;;;;5027179;28;20063;-82
2023/10/06 09:54:31;;;;;;;8.30;1.50;;;17.90;80.10;;;;;;5009586;28;20060;-80
2023/10/06 09:57:00;;;;;;;4.82;1.63;;;18.00;79.80;;;;;;5057032;28;20423;-80
2023/10/06 09:59:31;;;;;;;5.25;1.50;;;18.00;79.70;;;;;;5042700;28;23769;-80
2023/10/06 10:02:01;;;;;;;6.25;1.27;;;18.00;80.20;;;;;;5033948;28;22580;-81
2023/10/06 10:04:33;;;;;;;4.80;1.05;;;18.20;80.40;;;;;;5046239;28;20442;-81
2023/10/06 10:07:01;;;;;;;6.10;1.20;;;18.30;79.40;;;;;;5028969;28;20048;-82
2023/10/06 10:09:31;;;;;;;4.85;1.17;;;18.30;79.00;;;;;;5035681;28;20795;-80
2023/10/06 10:12:34;;;;;;;5.88;1.60;;;18.30;78.40;;;;;;5044734;28;20076;-81
2023/10/06 10:15:47;;;;;;;5.55;1.58;;;18.40;79.00;;;;;;5042904;28;20419;-79
2023/10/06 10:18:36;;;;;;;4.93;1.25;;;18.40;76.80;;;;;;5030674;28;20053;-80
2023/10/06 10:21:06;;;;;;;4.80;1.08;;;18.40;76.90;;;;;;5024715;28;20097;-81
2023/10/06 10:23:33;;;;;;;2.35;1.00;;;18.50;77.10;;;;;;5042594;28;20558;-80
2023/10/06 10:26:26;;;;;;;3.60;1.08;;;18.50;76.40;;;;;;5029705;28;20171;-80
2023/10/06 10:29:12;;;;;;;4.70;0.90;;;18.50;77.30;;;;;;5019159;28;20076;-81
2023/10/06 10:31:41;;;;;;;5.13;1.20;;;18.50;77.80;;;;;;5038498;28;20053;-81
2023/10/06 10:34:33;;;;;;;4.97;1.27;;;18.60;76.40;;;;;;5027006;28;20150;-80
2023/10/06 10:37:05;;;;;;;5.18;0.98;;;18.70;77.30;;;;;;5025578;28;20041;-81
2023/10/06 10:40:00;;;;;;;4.22;1.30;;;18.70;76.50;;;;;;5006821;28;22661;-81
2023/10/06 10:42:40;;;;;;;3.92;1.10;;;18.80;75.50;;;;;;5018429;28;20123;-81
2023/10/06 10:45:27;;;;;;;5.20;1.08;;;19.00;74.30;;;;;;5000636;28;20053;-81
2023/10/06 10:47:58;;;;;;;4.18;1.05;;;18.90;73.50;;;;;;5016547;28;20107;-81
2023/10/06 10:50:28;;;;;;;4.35;0.93;;;18.90;74.00;;;;;;5020617;28;20460;-81
2023/10/06 10:52:58;;;;;;;3.85;0.90;;;19.00;74.20;;;;;;5042747;28;20040;-81
2023/10/06 10:55:26;;;;;;;4.90;1.00;;;18.90;73.60;;;;;;5039963;28;20111;-81
2023/10/06 10:57:53;;;;;;;4.40;1.05;;;18.90;73.70;;;;;;5017474;28;20053;-80
2023/10/06 11:00:21;;;;;;;3.92;1.08;;;18.90;73.00;;;;;;5023654;28;20143;-80
2023/10/06 11:02:51;;;;;;;4.97;1.00;;;18.90;74.10;;;;;;5030071;28;22566;-81
2023/10/06 11:05:20;;;;;;;5.07;0.95;;;19.00;75.30;;;;;;5042654;28;20407;-80
2023/10/06 11:08:01;;;;;;;3.80;1.10;;;19.00;74.40;;;;;;5042080;28;20059;-80
2023/10/06 11:10:32;;;;;;;4.72;1.10;;;18.90;74.00;;;;;;5041790;28;22091;-81
2023/10/06 11:13:18;;;;;;;4.72;0.70;;;19.10;73.40;;;;;;5043166;28;20043;-80
2023/10/06 11:15:48;;;;;;;5.35;0.82;;;19.20;72.80;;;;;;5026397;28;20045;-81
2023/10/06 11:18:18;;;;;;;3.05;0.60;;;19.20;71.50;;;;;;5045731;28;20056;-81
2023/10/06 11:20:47;;;;;;;1.95;0.50;;;19.20;70.30;;;;;;5040177;28;20136;-80
2023/10/06 11:23:15;;;;;;;2.75;0.82;;;19.20;70.40;;;;;;5043879;28;20029;-81
2023/10/06 11:25:50;;;;;;;2.92;0.68;;;19.10;71.10;;;;;;5042601;28;20037;-81
2023/10/06 11:28:19;;;;;;;2.28;0.55;;;19.10;71.00;;;;;;5019858;28;20122;-81
2023/10/06 11:30:47;;;;;;;2.55;0.50;;;19.20;71.60;;;;;;5041849;28;20045;-81
2023/10/06 11:33:19;;;;;;;2.03;0.57;;;19.30;70.40;;;;;;5043852;28;20041;-80
2023/10/06 11:35:46;;;;;;;3.17;0.63;;;19.30;71.10;;;;;;5047982;28;20443;-82
2023/10/06 11:38:15;;;;;;;3.92;0.80;;;19.40;71.50;;;;;;5024929;28;20879;-83
2023/10/06 11:40:43;;;;;;;3.63;0.77;;;19.40;72.70;;;;;;5034257;28;20099;-81
2023/10/06 11:43:17;;;;;;;2.47;0.55;;;19.50;71.00;;;;;;5036969;28;20048;-84
2023/10/06 11:45:46;;;;;;;2.17;0.57;;;19.60;70.70;;;;;;5041975;28;20057;-79
2023/10/06 11:48:33;;;;;;;4.78;0.90;;;19.60;69.20;;;;;;5041136;28;20084;-82
2023/10/06 11:51:06;;;;;;;4.15;0.80;;;19.60;69.40;;;;;;5041797;28;20053;-85
2023/10/06 11:53:36;;;;;;;4.38;0.40;;;19.70;69.10;;;;;;5041806;28;20041;-81
2023/10/06 11:56:19;;;;;;;2.15;0.70;;;19.70;68.80;;;;;;5035857;28;20053;-81
2023/10/06 11:58:47;;;;;;;6.10;0.60;;;19.70;69.70;;;;;;5046407;28;20132;-80
2023/10/06 12:01:36;;;;;;;3.00;0.77;;;19.70;68.90;;;;;;5044229;28;20037;-80
2023/10/06 12:04:04;;;;;;;1.52;0.40;;;19.70;68.80;;;;;;5042914;28;20135;-80
2023/10/06 12:06:42;;;;;;;3.00;0.68;;;19.70;69.40;;;;;;5033027;28;22586;-80
2023/10/06 12:09:21;;;;;;;2.30;0.40;;;19.70;69.10;;;;;;5038971;28;20048;-81
2023/10/06 12:11:48;;;;;;;2.83;0.40;;;19.70;69.20;;;;;;5042527;28;20060;-83
2023/10/06 12:14:16;;;;;;;2.45;0.40;;;19.80;68.60;;;;;;5023738;28;20049;-81
2023/10/06 12:16:44;;;;;;;2.05;0.50;;;19.70;68.20;;;;;;5025610;28;20055;-79
2023/10/06 12:19:13;;;;;;;2.08;0.30;;;19.70;68.10;;;;;;5025559;28;20060;-81
2023/10/06 12:21:40;;;;;;;2.85;0.98;;;19.70;68.50;;;;;;5039478;28;20056;-81
2023/10/06 12:24:11;;;;;;;1.83;0.47;;;19.60;69.50;;;;;;5017092;28;20064;-79
2023/10/06 12:26:46;;;;;;;2.28;0.63;;;19.60;69.00;;;;;;5043473;28;20045;-80
2023/10/06 12:29:17;;;;;;;4.22;0.85;;;19.60;69.20;;;;;;5049283;28;20516;-80
2023/10/06 12:31:45;;;;;;;5.75;0.70;;;19.60;68.70;;;;;;5041424;28;20108;-81
2023/10/06 12:34:15;;;;;;;3.05;0.90;;;19.50;68.70;;;;;;5026401;28;22453;-81
2023/10/06 12:36:51;;;;;;;2.13;0.52;;;19.50;68.70;;;;;;5008482;28;20093;-85
2023/10/06 12:39:34;;;;;;;1.38;0.32;;;19.60;67.80;;;;;;5044425;28;20507;-80
2023/10/06 12:42:03;;;;;;;3.75;0.68;;;19.60;68.40;;;;;;5024045;28;20119;-82
2023/10/06 12:44:31;;;;;;;2.28;0.45;;;19.60;68.80;;;;;;5003444;28;20064;-80
2023/10/06 12:47:03;;;;;;;3.08;0.73;;;19.70;69.00;;;;;;5013213;28;20045;-83
2023/10/06 12:49:31;;;;;;;3.83;0.30;;;19.70;68.70;;;;;;5007002;28;20056;-82
2023/10/06 12:51:59;;;;;;;3.10;0.40;;;19.70;69.00;;;;;;5025004;28;20551;-80
2023/10/06 12:54:26;;;;;;;4.82;0.60;;;19.60;68.60;;;;;;5005415;28;20046;-81
2023/10/06 12:56:53;;;;;;;3.42;0.50;;;19.70;68.40;;;;;;4995477;28;20040;-80
2023/10/06 12:59:20;;;;;;;2.40;0.55;;;19.70;68.80;;;;;;5023267;28;20061;-80
2023/10/06 13:01:49;;;;;;;2.53;0.70;;;19.60;68.90;;;;;;5022126;28;20061;-84
2023/10/06 13:04:17;;;;;;;2.85;0.57;;;19.60;68.30;;;;;;4991494;28;20084;-80
2023/10/06 13:06:47;;;;;;;1.50;0.30;;;19.60;67.70;;;;;;5009592;28;20196;-82
2023/10/06 13:09:20;;;;;;;3.33;1.05;;;19.60;67.90;;;;;;5021568;28;20046;-80